Time;durP1;ratioP1;P1;durP2;ratioP2;P2;SDS_P1;SDS_P2;PMS_P1;PMS_P2;Temp;Humidity;BMP_temperature;BMP_pressure;BME280_temperature;BME280_humidity;BME280_pressure;Samples;Min_cycle;Max_cycle;Signal;HPM_P1;HPM_P2
2021/11/18 00:01:39;;;;;;;;;;;6.10;99.90;;;;;;4830469;29;19913;-80
2021/11/18 00:11:03;;;;;;;;;;;6.10;99.90;;;;;;4848939;29;19965;-80
2021/11/18 00:14:10;;;;;;;;;;;6.10;99.90;;;;;;4843234;29;19897;-80
2021/11/18 00:17:33;;;;;;;;;;;6.10;99.90;;;;;;4848732;29;19897;-80
2021/11/18 00:20:43;;;;;;;;;;;6.10;99.90;;;;;;4825407;29;19897;-82
2021/11/18 00:23:53;;;;;;;;;;;6.10;99.90;;;;;;4806210;29;19921;-80
2021/11/18 05:39:03;;;;;;;;;;;6.00;99.90;;;;;;6170490;22;19989;31
2021/11/18 06:03:20;;;;;;;;;;;5.90;99.90;;;;;;5969472;23;19997;-79
2021/11/18 06:05:46;;;;;;;;;;;6.00;99.90;;;;;;4993848;28;19914;-79
2021/11/18 06:08:12;;;;;;;;;;;5.90;99.90;;;;;;4989378;28;19916;-78
2021/11/18 06:10:39;;;;;;;;;;;6.00;99.90;;;;;;4985164;28;20362;-79
2021/11/18 06:13:25;;;;;;;;;;;6.00;99.90;;;;;;4982863;28;19922;-82
2021/11/18 07:42:41;;;;;;;;;;;7.00;99.90;;;;;;5058479;28;19992;-80
2021/11/18 07:48:15;;;;;;;;;;;7.10;99.90;;;;;;5058001;28;19916;-79
2021/11/18 07:51:08;;;;;;;;;;;7.30;99.90;;;;;;5017427;28;19894;-79
2021/11/18 07:53:55;;;;;;;;;;;7.40;99.90;;;;;;5019774;28;19910;-81
2021/11/18 07:57:04;;;;;;;;;;;7.60;99.90;;;;;;4979818;28;19941;-82
2021/11/18 07:59:55;;;;;;;;;;;7.60;99.90;;;;;;4978732;28;19953;-81
2021/11/18 11:25:24;;;;;;;;;;;11.00;91.20;;;;;;5156789;23;19932;-79
2021/11/18 11:28:21;;;;;;;;;;;11.10;91.10;;;;;;5032260;28;19984;-79
2021/11/18 11:31:24;;;;;;;;;;;11.40;90.80;;;;;;5033268;28;19917;-79
2021/11/18 11:34:34;;;;;;;;;;;11.70;89.40;;;;;;5003264;28;19905;-78
2021/11/18 11:38:11;;;;;;;;;;;12.00;90.00;;;;;;5035552;28;19914;-79
2021/11/18 11:41:33;;;;;;;;;;;12.10;88.80;;;;;;4959218;29;19910;-79
2021/11/18 12:02:45;;;;;;;;;;;11.60;89.00;;;;;;5586614;23;19931;-80
2021/11/18 12:11:41;;;;;;;;;;;11.20;92.10;;;;;;5756210;23;20241;-79
2021/11/18 12:19:52;;;;;;;;;;;11.20;92.50;;;;;;5482260;23;19926;-80
2021/11/18 12:22:33;;;;;;;;;;;11.30;91.70;;;;;;4992037;28;19894;-80
2021/11/18 14:44:54;;;;;;;;;;;9.70;97.70;;;;;;5220690;23;19922;-80
2021/11/18 16:05:46;;;;;;;;;;;7.80;98.60;;;;;;5159525;23;20134;-78
2021/11/18 16:08:16;;;;;;;;;;;7.70;99.00;;;;;;4950457;29;19918;-78
2021/11/18 16:10:59;;;;;;;;;;;7.60;99.50;;;;;;4958900;28;19910;-81
2021/11/18 16:16:52;;;;;;;;;;;7.40;99.90;;;;;;4980994;28;19920;-81
2021/11/18 16:19:33;;;;;;;;;;;7.40;99.90;;;;;;4958882;28;20003;-81
2021/11/18 16:22:30;;;;;;;;;;;7.20;99.90;;;;;;4963954;29;19934;-81
2021/11/18 16:27:33;;;;;;;;;;;7.10;99.90;;;;;;5209647;23;19926;-78
2021/11/18 16:30:01;;;;;;;;;;;7.00;99.90;;;;;;4964015;29;19953;-77
2021/11/18 16:32:27;;;;;;;;;;;6.90;99.90;;;;;;4968941;28;20002;-78
2021/11/18 16:34:58;;;;;;;;;;;6.90;99.90;;;;;;4972795;28;19958;-80
2021/11/18 16:40:04;;;;;;;;;;;6.70;99.90;;;;;;5402283;23;19907;-78
2021/11/18 16:42:54;;;;;;;;;;;6.70;99.90;;;;;;4977142;28;19930;-81
2021/11/18 16:46:01;;;;;;;;;;;6.60;99.90;;;;;;4971021;29;19974;-79
2021/11/18 16:58:57;;;;;;;;;;;6.30;99.90;;;;;;5183900;23;20394;-79
2021/11/18 17:01:24;;;;;;;;;;;6.20;99.90;;;;;;4948072;29;19910;-79
2021/11/18 17:03:50;;;;;;;;;;;6.20;99.90;;;;;;4942298;29;19925;-78
2021/11/18 17:09:20;;;;;;;;;;;6.10;99.90;;;;;;4969875;28;19977;-79
2021/11/18 17:12:06;;;;;;;;;;;6.00;99.90;;;;;;4960613;28;19898;-79
2021/11/18 17:14:53;;;;;;;;;;;6.00;99.90;;;;;;4944461;28;19938;-78
2021/11/18 17:17:42;;;;;;;;;;;6.00;99.90;;;;;;4973076;28;19948;-79
2021/11/18 17:20:17;;;;;;;;;;;6.00;99.90;;;;;;4988536;28;19917;-79
2021/11/18 17:22:46;;;;;;;;;;;6.00;99.90;;;;;;4976677;28;19914;-79
2021/11/18 17:25:45;;;;;;;;;;;6.00;99.90;;;;;;4987989;28;19909;-79
2021/11/18 17:28:12;;;;;;;;;;;6.00;99.90;;;;;;4961228;29;19935;-80
2021/11/18 17:31:01;;;;;;;;;;;6.00;99.90;;;;;;4962756;28;19922;-80
2021/11/18 17:33:29;;;;;;;;;;;5.90;99.90;;;;;;4955516;29;19918;-79
2021/11/18 17:36:18;;;;;;;;;;;5.80;99.90;;;;;;4955825;29;19922;-78
2021/11/18 17:38:46;;;;;;;;;;;5.70;99.90;;;;;;4936346;29;19982;-78
2021/11/18 17:44:38;;;;;;;;;;;5.50;99.90;;;;;;4977611;29;19909;-80
2021/11/18 17:47:56;;;;;;;;;;;5.40;99.90;;;;;;4876148;29;19907;-80
2021/11/18 17:51:05;;;;;;;;;;;5.30;99.90;;;;;;4904330;29;19912;-79
2021/11/18 18:00:34;;;;;;;;;;;4.90;99.90;;;;;;4884810;29;19952;-80
2021/11/18 18:04:32;;;;;;;136.77;53.23;;;4.80;99.90;;;;;;5111888;27;1644076;-79
2021/11/18 18:07:00;;;;;;;130.82;49.58;;;4.70;99.90;;;;;;5142719;28;20031;-78
2021/11/18 18:09:30;;;;;;;125.10;48.45;;;4.70;99.90;;;;;;5128570;27;20384;-77
2021/11/18 18:11:59;;;;;;;100.13;41.05;;;4.60;99.90;;;;;;5135483;28;20028;-81
2021/11/18 18:14:25;;;;;;;89.45;34.58;;;4.50;99.90;;;;;;5146362;28;20090;-80
2021/11/18 18:16:57;;;;;;;75.28;32.17;;;4.50;99.90;;;;;;5139130;27;20049;-80
2021/11/18 18:19:24;;;;;;;72.72;35.33;;;4.40;99.90;;;;;;5140528;28;20023;-81
2021/11/18 18:21:51;;;;;;;81.55;39.38;;;4.40;99.90;;;;;;5136952;28;20063;-80
2021/11/18 18:24:22;;;;;;;112.68;58.22;;;4.30;99.90;;;;;;5139295;28;20031;-79
2021/11/18 18:26:55;;;;;;;129.73;62.25;;;4.30;99.90;;;;;;5136728;28;20024;-78
2021/11/18 18:29:25;;;;;;;97.47;42.88;;;4.30;99.90;;;;;;5136137;28;20027;-79
2021/11/18 18:31:55;;;;;;;62.65;27.52;;;4.30;99.90;;;;;;5139851;27;20039;-79
2021/11/18 18:34:22;;;;;;;32.50;16.27;;;4.20;99.90;;;;;;5129373;28;20032;-79
2021/11/18 18:36:49;;;;;;;45.75;19.13;;;4.30;99.90;;;;;;5134452;28;20051;-80
2021/11/18 18:39:19;;;;;;;36.47;17.40;;;4.30;99.90;;;;;;5136980;28;20043;-80
2021/11/18 18:41:45;;;;;;;31.90;16.70;;;4.30;99.90;;;;;;5135926;28;20098;-80
2021/11/18 18:44:12;;;;;;;38.35;17.98;;;4.30;99.90;;;;;;5138743;28;20031;-79
2021/11/18 18:46:43;;;;;;;43.25;21.13;;;4.30;99.90;;;;;;5139022;28;20026;-80
2021/11/18 18:49:10;;;;;;;38.65;18.63;;;4.30;99.90;;;;;;5138215;27;20433;-80
2021/11/18 18:51:43;;;;;;;44.53;24.73;;;4.40;99.90;;;;;;5137289;28;20024;-80
2021/11/18 18:54:10;;;;;;;35.78;17.85;;;4.40;99.90;;;;;;5136759;28;20023;-78
2021/11/18 18:56:37;;;;;;;52.00;25.88;;;4.40;99.90;;;;;;5134671;27;20027;-80
2021/11/18 18:59:05;;;;;;;73.88;35.85;;;4.40;99.90;;;;;;5139442;28;20556;-81
2021/11/18 19:01:33;;;;;;;78.18;37.63;;;4.40;99.90;;;;;;5135762;28;20031;-79
2021/11/18 19:03:59;;;;;;;71.50;36.80;;;4.40;99.90;;;;;;5131246;28;20039;-79
2021/11/18 19:06:25;;;;;;;;;;;4.30;99.90;;;;;;5129756;28;20407;-80
2021/11/18 19:08:53;;;;;;;74.18;37.65;;;4.30;99.90;;;;;;5132306;28;19914;-79
2021/11/18 19:11:18;;;;;;;70.68;37.40;;;4.30;99.90;;;;;;5137249;28;20038;-80
2021/11/18 19:13:44;;;;;;;;;;;4.30;99.90;;;;;;5133366;28;20031;-78
2021/11/18 19:16:15;;;;;;;70.72;35.35;;;4.30;99.90;;;;;;5120376;28;19910;-79
2021/11/18 19:18:44;;;;;;;67.05;31.60;;;4.30;99.90;;;;;;5121696;28;20020;-80
2021/11/18 19:21:11;;;;;;;52.30;27.50;;;4.20;99.90;;;;;;5124912;28;20028;-79
2021/11/18 19:23:37;;;;;;;43.92;24.20;;;4.20;99.90;;;;;;5124845;28;20039;-81
2021/11/18 19:26:11;;;;;;;44.70;24.48;;;4.20;99.90;;;;;;5121196;28;20027;-82
2021/11/18 19:28:45;;;;;;;57.83;29.48;;;4.30;99.90;;;;;;5133442;28;20480;-82
2021/11/18 19:34:04;;;;;;;66.30;31.38;;;4.00;99.90;;;;;;5119568;28;20088;-79
2021/11/18 19:36:30;;;;;;;53.95;25.85;;;4.00;99.90;;;;;;5136339;28;20028;-83
2021/11/18 19:38:56;;;;;;;32.42;17.15;;;4.00;99.90;;;;;;5132325;28;20019;-82
2021/11/18 19:41:27;;;;;;;;;;;3.90;99.90;;;;;;5114075;28;20028;-81
2021/11/18 19:44:15;;;;;;;25.35;13.55;;;3.90;99.90;;;;;;5112947;28;19944;-82
2021/11/18 19:47:02;;;;;;;30.88;18.65;;;3.90;99.90;;;;;;5113487;28;20028;-81
2021/11/18 19:50:04;;;;;;;37.53;22.50;;;4.00;99.90;;;;;;5114276;28;20047;-80
2021/11/18 19:53:19;;;;;;;38.13;17.45;;;4.10;99.90;;;;;;5109675;28;20020;-82
2021/11/18 19:56:55;;;;;;;26.73;13.85;;;4.10;99.90;;;;;;5098249;28;20033;-82
2021/11/18 19:59:24;;;;;;;20.02;11.00;;;4.20;99.90;;;;;;5040790;28;20094;-81
2021/11/18 20:01:58;;;;;;;20.60;11.27;;;4.30;99.90;;;;;;5037976;28;20039;-82
2021/11/18 20:04:36;;;;;;;18.65;10.60;;;4.30;99.90;;;;;;5038085;28;20060;-83
2021/11/18 20:07:17;;;;;;;17.15;9.38;;;4.30;99.90;;;;;;5050124;28;20032;-82
2021/11/18 20:09:48;;;;;;;13.15;6.20;;;4.30;99.90;;;;;;5034804;28;20101;-82
2021/11/18 20:12:19;;;;;;;11.40;6.75;;;4.30;99.90;;;;;;5043765;28;20037;-82
2021/11/18 20:14:55;;;;;;;11.02;6.28;;;4.30;99.90;;;;;;5094255;28;20028;-81
2021/11/18 20:17:32;;;;;;;12.80;6.07;;;4.30;99.90;;;;;;5093875;28;20502;-81
2021/11/18 20:20:10;;;;;;;11.48;6.40;;;4.40;99.90;;;;;;5072518;28;20032;-81
2021/11/18 20:22:44;;;;;;;11.93;6.03;;;4.30;99.90;;;;;;5069423;28;20016;-83
2021/11/18 20:25:46;;;;;;;12.07;5.63;;;4.30;99.90;;;;;;5075334;28;20071;-83
2021/11/18 20:28:32;;;;;;;12.48;7.03;;;4.30;99.90;;;;;;5094300;28;20044;-81
2021/11/18 20:31:37;;;;;;;15.02;7.28;;;4.20;99.90;;;;;;5112283;28;20028;-82
2021/11/18 20:34:22;;;;;;;12.25;5.63;;;4.20;99.90;;;;;;5114147;28;20334;-82
2021/11/18 20:36:55;;;;;;;8.70;4.95;;;4.20;99.90;;;;;;5114212;28;20028;-80
2021/11/18 20:39:34;;;;;;;7.65;4.40;;;4.20;99.90;;;;;;5102386;28;20023;-83
2021/11/18 20:42:09;;;;;;;6.53;3.78;;;4.20;99.90;;;;;;5114619;28;20024;-81
2021/11/18 20:45:21;;;;;;;9.65;3.92;;;4.20;99.90;;;;;;5118731;28;20043;-82
2021/11/18 20:48:18;;;;;;;10.65;4.03;;;4.20;99.90;;;;;;5117324;28;20020;-82
2021/11/18 20:51:13;;;;;;;7.63;3.92;;;4.20;99.90;;;;;;5113458;28;20048;-82
2021/11/18 20:56:42;;;;;;;8.15;4.55;;;4.20;99.90;;;;;;5115639;28;20039;-82
2021/11/18 20:59:23;;;;;;;9.55;3.80;;;4.30;99.90;;;;;;5113294;28;20028;-82
2021/11/18 21:02:11;;;;;;;8.00;4.45;;;4.20;99.90;;;;;;5114930;28;20024;-81
2021/11/18 21:04:59;;;;;;;9.75;5.53;;;4.20;99.90;;;;;;5096873;28;20051;-82
2021/11/18 21:07:30;;;;;;;9.65;4.78;;;4.10;99.90;;;;;;5107336;28;20087;-83
2021/11/18 21:10:00;;;;;;;10.93;5.20;;;4.10;99.90;;;;;;5113588;28;20020;-81
2021/11/18 21:12:32;;;;;;;8.73;4.45;;;4.10;99.90;;;;;;5113336;28;20049;-82
2021/11/18 21:15:12;;;;;;;9.32;4.10;;;4.10;99.90;;;;;;5113916;28;20028;-81
2021/11/18 21:17:49;;;;;;;10.15;5.70;;;4.10;99.90;;;;;;5114094;28;20029;-81
2021/11/18 21:20:38;;;;;;;9.60;4.28;;;4.10;99.90;;;;;;5113653;28;20024;-79
2021/11/18 21:23:34;;;;;;;9.45;3.38;;;4.20;99.90;;;;;;5039668;28;20058;-81
2021/11/18 21:26:46;;;;;;;6.30;2.63;;;4.30;99.90;;;;;;5006390;28;20021;-81
2021/11/18 21:29:47;;;;;;;6.05;3.25;;;4.30;99.90;;;;;;5037985;28;20306;-82
2021/11/18 21:33:45;;;;;;;6.28;2.28;;;4.50;99.90;;;;;;4996852;28;20030;-81
2021/11/18 21:37:01;;;;;;;7.05;2.80;;;4.60;99.90;;;;;;5049536;28;20045;-82
2021/11/18 21:40:03;;;;;;;7.47;2.40;;;4.50;99.90;;;;;;4977163;29;20025;-81
2021/11/18 21:46:19;;;;;;;5.95;2.75;;;4.60;99.90;;;;;;4939241;29;20137;-81
2021/11/18 21:49:54;;;;;;;8.52;3.35;;;4.70;99.90;;;;;;4936789;28;20044;-80
2021/11/18 21:59:39;;;;;;;7.25;3.53;;;4.70;99.90;;;;;;4928534;28;20027;-82
2021/11/18 22:02:47;;;;;;;15.88;6.40;;;4.70;99.90;;;;;;4906729;29;20085;-81
2021/11/18 22:13:05;;;;;;;23.25;8.73;;;4.60;99.90;;;;;;4920122;29;20104;-81
2021/11/18 22:19:11;;;;;;;25.33;9.13;;;4.70;99.90;;;;;;4990470;28;20141;-80
2021/11/18 22:22:28;;;;;;;22.77;7.15;;;4.70;99.90;;;;;;5011707;28;20031;-81
2021/11/18 22:25:39;;;;;;;22.95;8.43;;;4.90;99.90;;;;;;4988295;28;20043;-82
2021/11/18 22:28:13;;;;;;;59.83;21.25;;;4.90;99.90;;;;;;5000628;28;20038;-82
2021/11/18 22:30:53;;;;;;;58.35;22.10;;;5.00;99.90;;;;;;5013134;28;20078;-81
2021/11/18 22:33:46;;;;;;;49.72;22.30;;;5.00;99.90;;;;;;5013160;28;20015;-82
2021/11/18 22:37:00;;;;;;;52.00;18.20;;;5.00;99.90;;;;;;5014671;28;20015;-81
2021/11/18 22:39:56;;;;;;;41.30;16.77;;;5.00;99.90;;;;;;5004635;28;20018;-83
2021/11/18 22:43:10;;;;;;;41.42;16.05;;;5.20;99.90;;;;;;5021984;28;20034;-82
2021/11/18 22:46:20;;;;;;;27.65;13.07;;;5.10;99.90;;;;;;5014799;28;20026;-81
2021/11/18 22:49:31;;;;;;;20.48;9.50;;;5.10;99.90;;;;;;5040745;28;20033;-81
2021/11/18 22:52:25;;;;;;;20.55;8.25;;;5.10;99.90;;;;;;5043833;28;20037;-81
2021/11/18 22:55:51;;;;;;;15.23;6.22;;;5.10;99.90;;;;;;5056738;28;20017;-80
2021/11/18 22:59:06;;;;;;;20.67;9.25;;;5.10;99.90;;;;;;5038317;28;20093;-80
2021/11/18 23:02:04;;;;;;;13.85;5.00;;;5.10;99.90;;;;;;5074303;28;20055;-81
2021/11/18 23:05:52;;;;;;;13.93;7.05;;;5.10;99.90;;;;;;5076761;28;20033;-81
2021/11/18 23:12:46;;;;;;;17.83;7.97;;;5.30;99.90;;;;;;5058650;28;20019;-83
2021/11/18 23:19:40;;;;;;;14.68;6.30;;;5.30;99.90;;;;;;5059653;28;20036;-80
2021/11/18 23:22:56;;;;;;;;;;;5.30;99.90;;;;;;5059423;28;20024;-81
2021/11/18 23:26:47;;;;;;;17.52;4.00;;;5.40;99.90;;;;;;5055773;28;19940;-82
2021/11/18 23:30:47;;;;;;;7.30;3.33;;;5.50;99.90;;;;;;4941899;28;20012;-80
2021/11/18 23:37:24;;;;;;;5.68;2.50;;;5.80;99.90;;;;;;4961284;28;20104;-82
2021/11/18 23:47:07;;;;;;;10.95;3.03;;;5.90;99.90;;;;;;4867325;29;20056;-80
2021/11/18 23:50:50;;;;;;;9.85;3.22;;;5.80;99.90;;;;;;4830581;29;20033;-81
